createdAt,value
2024-01-11T00:00:35.787Z,-64
2024-01-11T00:03:03.191Z,-64
2024-01-11T00:05:29.866Z,-63
2024-01-11T00:07:56.672Z,-64
2024-01-11T00:10:24.160Z,-63
2024-01-11T00:12:50.925Z,-63
2024-01-11T00:15:17.598Z,-64
2024-01-11T00:17:44.516Z,-63
2024-01-11T00:20:12.703Z,-62
2024-01-11T00:22:39.366Z,-63
2024-01-11T00:25:06.257Z,-65
2024-01-11T00:27:33.254Z,-64
2024-01-11T00:30:00.311Z,-64
2024-01-11T00:32:27.139Z,-63
2024-01-11T00:34:54.072Z,-65
2024-01-11T00:37:21.016Z,-63
2024-01-11T00:39:47.767Z,-63
2024-01-11T00:42:14.398Z,-63
2024-01-11T00:44:42.188Z,-66
2024-01-11T00:47:08.812Z,-63
2024-01-11T00:49:35.479Z,-65
2024-01-11T00:52:02.484Z,-64
2024-01-11T00:54:29.388Z,-63
2024-01-11T00:56:55.997Z,-63
2024-01-11T00:59:22.737Z,-63
2024-01-11T01:01:50.438Z,-63
2024-01-11T01:04:17.940Z,-64
2024-01-11T01:06:44.997Z,-64
2024-01-11T01:09:11.764Z,-66
2024-01-11T01:11:39.170Z,-63
2024-01-11T01:14:06.489Z,-62
2024-01-11T01:16:33.182Z,-63
2024-01-11T01:18:59.985Z,-64
2024-01-11T01:21:27.141Z,-64
2024-01-11T01:23:54.200Z,-63
2024-01-11T01:26:23.354Z,-64
2024-01-11T01:28:49.990Z,-63
2024-01-11T01:31:16.912Z,-63
2024-01-11T01:33:44.090Z,-63
2024-01-11T01:36:13.552Z,-63
2024-01-11T01:38:40.395Z,-65
2024-01-11T01:41:07.199Z,-64
2024-01-11T01:43:34.369Z,-64
2024-01-11T01:46:01.475Z,-64
2024-01-11T01:48:29.135Z,-63
2024-01-11T01:50:56.822Z,-64
2024-01-11T01:53:26.386Z,-63
2024-01-11T01:55:53.953Z,-64
2024-01-11T01:58:21.502Z,-64
2024-01-11T02:00:52.153Z,-64
2024-01-11T02:03:19.514Z,-64
2024-01-11T02:05:46.535Z,-65
2024-01-11T02:08:18.216Z,-67
2024-01-11T02:10:45.457Z,-66
2024-01-11T02:13:14.330Z,-66
2024-01-11T02:15:41.472Z,-65
2024-01-11T02:18:08.693Z,-65
2024-01-11T02:20:35.563Z,-66
2024-01-11T02:23:09.293Z,-65
2024-01-11T02:25:36.082Z,-66
2024-01-11T02:28:02.771Z,-65
2024-01-11T02:30:29.474Z,-65
2024-01-11T02:32:56.760Z,-66
2024-01-11T02:35:24.575Z,-66
2024-01-11T02:37:51.833Z,-65
2024-01-11T02:40:20.322Z,-65
2024-01-11T02:42:47.702Z,-65
2024-01-11T02:45:14.707Z,-66
2024-01-11T02:47:41.581Z,-65
2024-01-11T02:50:09.240Z,-66
2024-01-11T02:52:36.428Z,-65
2024-01-11T02:55:03.382Z,-66
2024-01-11T02:57:30.045Z,-65
2024-01-11T02:59:56.887Z,-65
2024-01-11T03:02:23.906Z,-65
2024-01-11T03:04:50.813Z,-66
2024-01-11T03:07:17.493Z,-65
2024-01-11T03:09:44.083Z,-66
2024-01-11T03:12:11.310Z,-66
2024-01-11T03:14:37.996Z,-65
2024-01-11T03:17:05.997Z,-65
2024-01-11T03:19:33.020Z,-65
2024-01-11T03:21:59.742Z,-65
2024-01-11T03:24:26.329Z,-64
2024-01-11T03:26:53.239Z,-65
2024-01-11T03:29:20.058Z,-64
2024-01-11T03:31:46.810Z,-65
2024-01-11T03:34:13.892Z,-65
2024-01-11T03:36:41.350Z,-65
2024-01-11T03:39:08.041Z,-65
2024-01-11T03:41:35.221Z,-65
2024-01-11T03:44:02.532Z,-65
2024-01-11T03:46:29.198Z,-64
2024-01-11T03:48:57.240Z,-64
2024-01-11T03:51:24.220Z,-63
2024-01-11T03:53:50.991Z,-67
2024-01-11T03:56:18.126Z,-65
2024-01-11T03:58:46.474Z,-66
2024-01-11T04:01:13.386Z,-66
2024-01-11T04:03:40.530Z,-66
2024-01-11T04:06:07.859Z,-66
2024-01-11T04:08:34.861Z,-66
2024-01-11T04:11:08.285Z,-66
2024-01-11T04:13:34.929Z,-66
2024-01-11T04:18:36.529Z,-63
2024-01-11T04:21:03.286Z,-64
2024-01-11T04:23:29.905Z,-64
2024-01-11T04:25:56.580Z,-64
2024-01-11T04:28:24.346Z,-65
2024-01-11T04:30:51.044Z,-65
2024-01-11T04:33:17.825Z,-65
2024-01-11T04:35:44.553Z,-64
2024-01-11T04:38:12.149Z,-62
2024-01-11T04:40:39.247Z,-64
2024-01-11T04:43:05.835Z,-65
2024-01-11T04:45:32.417Z,-62
2024-01-11T04:47:59.596Z,-62
2024-01-11T04:50:26.421Z,-63
2024-01-11T04:52:53.540Z,-63
2024-01-11T04:55:20.199Z,-64
2024-01-11T04:57:46.989Z,-64
2024-01-11T05:00:13.964Z,-63
2024-01-11T05:02:41.008Z,-62
2024-01-11T05:05:07.742Z,-63
2024-01-11T05:07:35.889Z,-63
2024-01-11T05:10:02.526Z,-63
2024-01-11T05:12:29.129Z,-63
2024-01-11T05:14:55.934Z,-64
2024-01-11T05:17:22.605Z,-64
2024-01-11T05:19:49.249Z,-64
2024-01-11T05:22:16.664Z,-64
2024-01-11T05:24:43.265Z,-64
2024-01-11T05:27:09.956Z,-63
2024-01-11T05:29:37.359Z,-64
2024-01-11T05:32:04.498Z,-63
2024-01-11T05:34:31.545Z,-63
2024-01-11T05:37:00.392Z,-62
2024-01-11T05:39:27.689Z,-62
2024-01-11T05:41:54.286Z,-62
2024-01-11T05:44:21.859Z,-63
2024-01-11T05:46:48.515Z,-63
2024-01-11T05:49:15.209Z,-63
2024-01-11T05:51:42.004Z,-63
2024-01-11T05:54:08.619Z,-63
2024-01-11T05:56:35.332Z,-65
2024-01-11T05:59:02.464Z,-63
2024-01-11T06:01:29.138Z,-63
2024-01-11T06:03:56.451Z,-63
2024-01-11T06:06:23.183Z,-63
2024-01-11T06:08:49.995Z,-63
2024-01-11T06:11:20.455Z,-62
2024-01-11T06:13:47.112Z,-63
2024-01-11T06:16:13.978Z,-62
2024-01-11T06:18:40.849Z,-62
2024-01-11T06:21:07.672Z,-62
2024-01-11T06:23:34.456Z,-63
2024-01-11T06:26:01.256Z,-62
2024-01-11T06:28:27.914Z,-63
2024-01-11T06:30:55.295Z,-62
2024-01-11T06:33:22.560Z,-62
2024-01-11T06:35:49.239Z,-63
2024-01-11T06:38:15.949Z,-63
2024-01-11T06:40:43.154Z,-63
2024-01-11T06:43:09.838Z,-63
2024-01-11T06:45:36.742Z,-64
2024-01-11T06:48:03.950Z,-63
2024-01-11T06:50:30.647Z,-62
2024-01-11T06:52:57.316Z,-63
2024-01-11T06:55:24.620Z,-63
2024-01-11T06:57:51.236Z,-63
2024-01-11T07:00:18.108Z,-63
2024-01-11T07:02:44.825Z,-62
2024-01-11T07:05:11.692Z,-63
2024-01-11T07:07:38.608Z,-62
2024-01-11T07:10:06.853Z,-63
2024-01-11T07:12:34.192Z,-63
2024-01-11T07:15:00.996Z,-63
2024-01-11T07:17:27.739Z,-62
2024-01-11T07:19:57.201Z,-63
2024-01-11T07:22:23.827Z,-62
2024-01-11T07:24:50.426Z,-63
2024-01-11T07:27:17.418Z,-62
2024-01-11T07:29:44.084Z,-63
2024-01-11T07:32:13.117Z,-63
2024-01-11T07:34:39.981Z,-63
2024-01-11T07:37:06.695Z,-63
2024-01-11T07:39:33.362Z,-63
2024-01-11T07:42:00.008Z,-63
2024-01-11T07:44:26.648Z,-62
2024-01-11T07:46:55.157Z,-63
2024-01-11T07:49:23.409Z,-63
2024-01-11T07:51:50.432Z,-62
2024-01-11T07:54:17.462Z,-63
2024-01-11T07:56:44.509Z,-62
2024-01-11T07:59:16.453Z,-63
2024-01-11T08:01:43.811Z,-62
2024-01-11T08:04:10.638Z,-63
2024-01-11T08:06:37.425Z,-63
2024-01-11T08:09:06.461Z,-63
2024-01-11T08:11:36.576Z,-62
2024-01-11T08:14:07.220Z,-62
2024-01-11T08:16:34.305Z,-63
2024-01-11T08:19:02.523Z,-62
2024-01-11T08:21:30.014Z,-64
2024-01-11T08:24:00.446Z,-62
2024-01-11T08:26:31.523Z,-62
2024-01-11T08:28:58.470Z,-62
2024-01-11T08:31:25.783Z,-63
2024-01-11T08:33:52.870Z,-62
2024-01-11T08:36:19.800Z,-62
2024-01-11T08:38:46.449Z,-62
2024-01-11T08:41:13.366Z,-62
2024-01-11T08:43:40.835Z,-62
2024-01-11T08:46:07.481Z,-62
2024-01-11T08:48:34.871Z,-62
2024-01-11T08:51:02.357Z,-63
2024-01-11T08:53:29.180Z,-62
2024-01-11T08:55:55.805Z,-62
2024-01-11T08:58:22.789Z,-63
2024-01-11T09:00:49.530Z,-62
2024-01-11T09:03:18.210Z,-62
2024-01-11T09:05:45.310Z,-62
2024-01-11T09:08:12.045Z,-64
2024-01-11T09:10:38.917Z,-64
2024-01-11T09:13:05.716Z,-64
2024-01-11T09:15:33.068Z,-63
2024-01-11T09:18:01.899Z,-64
2024-01-11T09:20:28.824Z,-63
2024-01-11T09:22:55.581Z,-64
2024-01-11T09:25:22.216Z,-64
2024-01-11T09:27:49.091Z,-64
2024-01-11T09:30:15.933Z,-64
2024-01-11T09:32:43.046Z,-65
2024-01-11T09:35:11.971Z,-63
2024-01-11T09:37:41.122Z,-64
2024-01-11T09:40:11.978Z,-64
2024-01-11T09:42:39.105Z,-64
2024-01-11T09:45:18.918Z,-64
2024-01-11T09:47:50.101Z,-63
2024-01-11T09:50:19.570Z,-64
2024-01-11T09:52:49.014Z,-64
2024-01-11T09:55:16.006Z,-64
2024-01-11T09:57:46.028Z,-63
2024-01-11T10:00:17.570Z,-64
2024-01-11T10:02:44.251Z,-64
2024-01-11T10:05:11.698Z,-64
2024-01-11T10:07:39.378Z,-64
2024-01-11T10:10:06.992Z,-64
2024-01-11T10:12:36.205Z,-64
2024-01-11T10:15:09.642Z,-64
2024-01-11T10:17:45.951Z,-65
2024-01-11T10:20:15.642Z,-65
2024-01-11T10:22:45.984Z,-65
2024-01-11T10:25:16.986Z,-65
2024-01-11T10:27:45.542Z,-63
2024-01-11T10:30:18.528Z,-63
2024-01-11T10:32:46.168Z,-64
2024-01-11T10:35:13.112Z,-63
2024-01-11T10:37:40.329Z,-63
2024-01-11T10:40:12.229Z,-62
2024-01-11T10:42:46.584Z,-63
2024-01-11T10:45:18.419Z,-63
2024-01-11T10:48:00.030Z,-63
2024-01-11T10:50:32.494Z,-64
2024-01-11T10:53:03.804Z,-62
2024-01-11T10:55:33.935Z,-63
2024-01-11T10:58:02.638Z,-63
2024-01-11T11:00:31.209Z,-62
2024-01-11T11:03:02.225Z,-63
2024-01-11T11:05:31.940Z,-65
2024-01-11T11:08:03.238Z,-63
2024-01-11T11:10:31.840Z,-63
2024-01-11T11:13:01.216Z,-65
2024-01-11T11:15:32.407Z,-63
2024-01-11T11:17:59.302Z,-62
2024-01-11T11:20:26.694Z,-63
2024-01-11T11:23:11.222Z,-65
2024-01-11T11:25:38.710Z,-62
2024-01-11T11:28:06.296Z,-64
2024-01-11T11:30:34.261Z,-63
2024-01-11T11:33:32.416Z,-65
2024-01-11T11:36:00.037Z,-63
2024-01-11T11:38:32.323Z,-63
2024-01-11T11:41:00.993Z,-63
2024-01-11T11:43:29.329Z,-64
2024-01-11T11:45:58.857Z,-66
2024-01-11T11:48:30.962Z,-63
2024-01-11T11:51:06.940Z,-64
2024-01-11T11:53:37.442Z,-66
2024-01-11T11:56:05.137Z,-63
2024-01-11T11:58:33.306Z,-64
2024-01-11T12:01:01.745Z,-63
2024-01-11T12:03:32.871Z,-64
2024-01-11T12:06:01.064Z,-66
2024-01-11T12:08:28.671Z,-64
2024-01-11T12:10:55.758Z,-66
2024-01-11T12:13:23.334Z,-63
2024-01-11T12:15:49.981Z,-63
2024-01-11T12:18:16.943Z,-64
2024-01-11T12:20:44.135Z,-64
2024-01-11T12:23:11.458Z,-63
2024-01-11T12:25:38.134Z,-64
2024-01-11T12:28:07.551Z,-66
2024-01-11T12:30:34.777Z,-63
2024-01-11T12:33:05.384Z,-65
2024-01-11T12:35:32.607Z,-64
2024-01-11T12:38:07.784Z,-66
2024-01-11T12:40:38.987Z,-64
2024-01-11T12:43:06.827Z,-64
2024-01-11T12:45:33.849Z,-63
2024-01-11T12:48:01.368Z,-66
2024-01-11T12:50:29.598Z,-63
2024-01-11T12:53:07.800Z,-64
2024-01-11T12:55:45.008Z,-63
2024-01-11T12:58:25.743Z,-63
2024-01-11T13:00:53.434Z,-64
2024-01-11T13:03:23.239Z,-63
2024-01-11T13:05:50.588Z,-64
2024-01-11T13:08:20.499Z,-64
2024-01-11T13:10:49.596Z,-64
2024-01-11T13:13:16.986Z,-63
2024-01-11T13:15:43.884Z,-63
2024-01-11T13:18:10.936Z,-64
2024-01-11T13:20:37.819Z,-64
2024-01-11T13:23:22.293Z,-63
2024-01-11T13:25:53.732Z,-64
2024-01-11T13:28:20.676Z,-65
2024-01-11T13:30:48.250Z,-63
2024-01-11T13:33:17.931Z,-63
2024-01-11T13:35:45.105Z,-63
2024-01-11T13:38:12.250Z,-63
2024-01-11T13:40:41.683Z,-63
2024-01-11T13:43:08.761Z,-64
2024-01-11T13:45:37.741Z,-63
2024-01-11T13:48:06.091Z,-63
2024-01-11T13:50:36.418Z,-65
2024-01-11T13:53:03.623Z,-64
2024-01-11T13:55:39.352Z,-65
2024-01-11T13:58:07.111Z,-63
2024-01-11T14:00:33.876Z,-63
2024-01-11T14:03:00.881Z,-64
2024-01-11T14:05:27.748Z,-62
2024-01-11T14:08:00.436Z,-63
2024-01-11T14:10:28.390Z,-63
2024-01-11T14:12:55.552Z,-64
2024-01-11T14:15:22.337Z,-65
2024-01-11T14:17:50.056Z,-63
2024-01-11T14:20:17.623Z,-64
2024-01-11T14:22:50.717Z,-64
2024-01-11T14:25:19.107Z,-62
2024-01-11T14:27:45.921Z,-63
2024-01-11T14:30:14.124Z,-65
2024-01-11T14:32:42.530Z,-63
2024-01-11T14:35:10.459Z,-64
2024-01-11T14:37:38.984Z,-63
2024-01-11T14:40:12.572Z,-66
2024-01-11T14:42:40.375Z,-65
2024-01-11T14:45:10.681Z,-66
2024-01-11T14:47:37.961Z,-62
2024-01-11T14:50:05.826Z,-65
2024-01-11T14:52:32.803Z,-62
2024-01-11T14:55:00.328Z,-64
2024-01-11T14:57:27.025Z,-62
2024-01-11T14:59:54.468Z,-64
2024-01-11T15:02:21.550Z,-63
2024-01-11T15:04:48.592Z,-64
2024-01-11T15:07:15.862Z,-64
2024-01-11T15:09:42.634Z,-66
2024-01-11T15:12:09.611Z,-64
2024-01-11T15:14:36.388Z,-64
2024-01-11T15:17:03.834Z,-64
2024-01-11T15:19:31.032Z,-63
2024-01-11T15:21:57.768Z,-64
2024-01-11T15:24:24.459Z,-64
2024-01-11T15:26:51.282Z,-64
2024-01-11T15:29:18.482Z,-64
2024-01-11T15:31:47.775Z,-64
2024-01-11T15:34:18.408Z,-64
2024-01-11T15:36:45.498Z,-65
2024-01-11T15:39:21.616Z,-63
2024-01-11T15:41:58.537Z,-64
2024-01-11T15:44:29.171Z,-62
2024-01-11T15:46:57.683Z,-63
2024-01-11T15:49:24.853Z,-64
2024-01-11T15:51:51.920Z,-63
2024-01-11T15:54:18.585Z,-63
2024-01-11T15:56:45.380Z,-65
2024-01-11T15:59:12.291Z,-65
2024-01-11T16:01:51.010Z,-63
2024-01-11T16:04:29.679Z,-64
2024-01-11T16:06:56.626Z,-66
2024-01-11T16:09:24.818Z,-65
2024-01-11T16:11:51.766Z,-63
2024-01-11T16:14:18.856Z,-65
2024-01-11T16:16:45.502Z,-65
2024-01-11T16:19:12.372Z,-65
2024-01-11T16:21:39.501Z,-63
2024-01-11T16:24:06.195Z,-63
2024-01-11T16:26:32.873Z,-64
2024-01-11T16:28:59.521Z,-63
2024-01-11T16:31:26.318Z,-63
2024-01-11T16:33:54.318Z,-63
2024-01-11T16:36:21.281Z,-64
2024-01-11T16:38:48.398Z,-64
2024-01-11T16:41:15.282Z,-63
2024-01-11T16:43:41.986Z,-64
2024-01-11T16:46:08.919Z,-64
2024-01-11T16:48:36.067Z,-64
2024-01-11T16:51:03.328Z,-63
2024-01-11T16:53:30.047Z,-63
2024-01-11T16:55:56.866Z,-63
2024-01-11T16:58:23.512Z,-63
2024-01-11T17:00:50.181Z,-64
2024-01-11T17:03:17.510Z,-63
2024-01-11T17:05:44.477Z,-63
2024-01-11T17:08:11.150Z,-63
2024-01-11T17:10:39.219Z,-63
2024-01-11T17:13:06.078Z,-63
2024-01-11T17:15:33.411Z,-63
2024-01-11T17:18:00.284Z,-63
2024-01-11T17:20:27.733Z,-63
2024-01-11T17:22:55.219Z,-63
2024-01-11T17:25:22.296Z,-63
2024-01-11T17:27:48.991Z,-64
2024-01-11T17:30:16.079Z,-64
2024-01-11T17:32:42.831Z,-64
2024-01-11T17:35:10.189Z,-64
2024-01-11T17:37:37.254Z,-64
2024-01-11T17:40:05.867Z,-65
2024-01-11T17:42:32.672Z,-64
2024-01-11T17:44:59.691Z,-64
2024-01-11T17:47:26.504Z,-68
2024-01-11T17:49:53.344Z,-64
2024-01-11T17:52:21.801Z,-64
2024-01-11T17:54:48.705Z,-64
2024-01-11T17:57:15.841Z,-64
2024-01-11T17:59:45.887Z,-67
2024-01-11T18:02:13.178Z,-67
2024-01-11T18:04:40.435Z,-66
2024-01-11T18:07:07.213Z,-67
2024-01-11T18:09:36.875Z,-67
2024-01-11T18:12:03.718Z,-65
2024-01-11T18:14:30.384Z,-64
2024-01-11T18:16:57.030Z,-64
2024-01-11T18:19:23.719Z,-64
2024-01-11T18:21:50.414Z,-64
2024-01-11T18:24:17.195Z,-64
2024-01-11T18:26:43.841Z,-65
2024-01-11T18:29:10.775Z,-64
2024-01-11T18:31:40.076Z,-64
2024-01-11T18:34:07.146Z,-64
2024-01-11T18:36:44.481Z,-65
2024-01-11T18:39:11.453Z,-64
2024-01-11T18:41:38.349Z,-64
2024-01-11T18:44:05.234Z,-64
2024-01-11T18:46:31.909Z,-65
2024-01-11T18:48:58.697Z,-64
2024-01-11T18:51:25.571Z,-64
2024-01-11T18:53:52.546Z,-63
2024-01-11T18:56:19.438Z,-64
2024-01-11T18:58:46.160Z,-64
2024-01-11T19:01:13.222Z,-65
2024-01-11T19:03:41.065Z,-65
2024-01-11T19:06:09.087Z,-65
2024-01-11T19:08:36.175Z,-64
2024-01-11T19:11:03.100Z,-64
2024-01-11T19:13:29.743Z,-64
2024-01-11T19:15:56.701Z,-64
2024-01-11T19:18:23.550Z,-64
2024-01-11T19:20:54.453Z,-64
2024-01-11T19:23:26.886Z,-64
2024-01-11T19:25:58.381Z,-65
2024-01-11T19:28:25.880Z,-65
2024-01-11T19:30:52.676Z,-65
2024-01-11T19:33:19.565Z,-67
2024-01-11T19:35:46.487Z,-64
2024-01-11T19:38:13.819Z,-65
2024-01-11T19:40:43.834Z,-65
2024-01-11T19:43:10.690Z,-65
2024-01-11T19:45:37.497Z,-65
2024-01-11T19:48:04.866Z,-65
2024-01-11T19:50:34.862Z,-65
2024-01-11T19:53:01.841Z,-65
2024-01-11T19:55:28.837Z,-65
2024-01-11T19:57:55.505Z,-65
2024-01-11T20:00:23.034Z,-66
2024-01-11T20:02:50.990Z,-68
2024-01-11T20:05:17.693Z,-65
2024-01-11T20:07:44.842Z,-65
2024-01-11T20:10:12.311Z,-67
2024-01-11T20:12:39.132Z,-66
2024-01-11T20:15:08.326Z,-65
2024-01-11T20:17:35.302Z,-65
2024-01-11T20:20:02.266Z,-65
2024-01-11T20:22:31.743Z,-66
2024-01-11T20:24:58.379Z,-65
2024-01-11T20:27:24.986Z,-64
2024-01-11T20:29:51.665Z,-64
2024-01-11T20:32:18.613Z,-64
2024-01-11T20:34:45.345Z,-64
2024-01-11T20:37:12.207Z,-65
2024-01-11T20:39:39.407Z,-64
2024-01-11T20:42:08.253Z,-64
2024-01-11T20:44:37.635Z,-64
2024-01-11T20:47:05.297Z,-64
2024-01-11T20:49:31.988Z,-64
2024-01-11T20:52:00.529Z,-64
2024-01-11T20:54:27.634Z,-65
2024-01-11T20:56:56.619Z,-64
2024-01-11T20:59:23.572Z,-65
2024-01-11T21:01:50.771Z,-64
2024-01-11T21:04:17.575Z,-65
2024-01-11T21:06:45.680Z,-65
2024-01-11T21:09:12.944Z,-64
2024-01-11T21:11:39.588Z,-65
2024-01-11T21:14:06.399Z,-64
2024-01-11T21:16:33.147Z,-65
2024-01-11T21:18:59.888Z,-64
2024-01-11T21:21:27.755Z,-65
2024-01-11T21:23:58.777Z,-68
2024-01-11T21:26:25.542Z,-66
2024-01-11T21:28:54.903Z,-67
2024-01-11T21:31:26.028Z,-66
2024-01-11T21:33:53.517Z,-66
2024-01-11T21:36:24.545Z,-66
2024-01-11T21:38:56.558Z,-66
2024-01-11T21:41:23.815Z,-67
2024-01-11T21:43:52.122Z,-66
2024-01-11T21:46:19.357Z,-67
2024-01-11T21:48:46.530Z,-65
2024-01-11T21:51:13.564Z,-66
2024-01-11T21:53:41.110Z,-65
2024-01-11T21:56:07.750Z,-66
2024-01-11T21:58:36.008Z,-65
2024-01-11T22:01:03.168Z,-66
2024-01-11T22:03:30.121Z,-67
2024-01-11T22:05:57.020Z,-67
2024-01-11T22:08:24.047Z,-69
2024-01-11T22:10:51.789Z,-68
2024-01-11T22:13:18.542Z,-68
2024-01-11T22:15:45.577Z,-67
2024-01-11T22:18:12.713Z,-82
2024-01-11T22:20:39.938Z,-79
2024-01-11T22:23:07.234Z,-81
2024-01-11T22:25:34.660Z,-82
2024-01-11T22:28:02.850Z,-78
2024-01-11T22:30:29.850Z,-79
2024-01-11T22:32:59.267Z,-79
2024-01-11T22:35:26.145Z,-79
2024-01-11T22:37:53.051Z,-83
2024-01-11T22:40:20.016Z,-79
2024-01-11T22:42:46.803Z,-80
2024-01-11T22:45:13.525Z,-82
2024-01-11T22:47:41.066Z,-79
2024-01-11T22:50:08.405Z,-81
2024-01-11T22:52:35.578Z,-84
2024-01-11T22:55:02.398Z,-81
2024-01-11T22:57:29.112Z,-83
2024-01-11T22:59:56.047Z,-82
2024-01-11T23:02:23.272Z,-81
2024-01-11T23:04:51.199Z,-82
2024-01-11T23:07:18.684Z,-82
2024-01-11T23:09:45.679Z,-83
2024-01-11T23:12:12.630Z,-82
2024-01-11T23:14:39.543Z,-81
2024-01-11T23:17:07.708Z,-82
2024-01-11T23:19:34.770Z,-82
2024-01-11T23:22:01.930Z,-81
2024-01-11T23:24:28.670Z,-81
2024-01-11T23:26:56.191Z,-82
2024-01-11T23:29:23.086Z,-84
2024-01-11T23:31:51.352Z,-82
2024-01-11T23:34:18.196Z,-83
2024-01-11T23:36:44.962Z,-81
2024-01-11T23:39:11.934Z,-81
2024-01-11T23:41:38.776Z,-80
2024-01-11T23:44:05.838Z,-80
2024-01-11T23:46:32.951Z,-79
2024-01-11T23:48:59.833Z,-80
2024-01-11T23:51:27.037Z,-81
2024-01-11T23:53:53.910Z,-79
2024-01-11T23:56:20.714Z,-80
2024-01-11T23:58:47.428Z,-79
